createdAt,value
2018-12-14T00:00:32.508Z,12.1
2018-12-14T00:01:21.982Z,12.1
2018-12-14T00:02:12.360Z,12.1
2018-12-14T00:03:01.815Z,12.1
2018-12-14T00:03:52.430Z,12.1
2018-12-14T00:04:42.018Z,12.1
2018-12-14T00:05:32.335Z,12.1
2018-12-14T00:06:22.408Z,12.1
2018-12-14T00:07:13.063Z,12.1
2018-12-14T00:08:02.500Z,12.1
2018-12-14T00:08:53.353Z,12
2018-12-14T00:09:43.085Z,12.1
2018-12-14T00:10:33.437Z,12.1
2018-12-14T00:11:22.500Z,12
2018-12-14T00:12:11.968Z,12
2018-12-14T00:13:03.977Z,12
2018-12-14T00:13:53.143Z,12.1
2018-12-14T00:14:42.340Z,12.1
2018-12-14T00:32:59.428Z,12.1
2018-12-14T00:33:48.666Z,12
2018-12-14T00:34:38.940Z,12
2018-12-14T00:35:29.417Z,12
2018-12-14T00:36:19.029Z,12.1
2018-12-14T00:37:09.083Z,12.1
2018-12-14T00:37:58.411Z,12.1
2018-12-14T00:38:49.003Z,12
2018-12-14T00:39:38.976Z,12
2018-12-14T00:40:28.504Z,12
2018-12-14T00:41:19.366Z,12
2018-12-14T00:42:09.766Z,12
2018-12-14T00:42:59.428Z,12.1
2018-12-14T00:43:49.813Z,12.1
2018-12-14T00:44:39.080Z,12.1
2018-12-14T00:45:29.428Z,12.1
2018-12-14T00:46:19.750Z,12.1
2018-12-14T00:47:10.498Z,12.2
2018-12-14T00:48:00.103Z,12.1
2018-12-14T00:48:49.648Z,12.2
2018-12-14T00:49:39.690Z,12.2
2018-12-14T00:50:30.325Z,12.3
2018-12-14T00:51:20.353Z,12.3
2018-12-14T00:52:10.687Z,12.3
2018-12-14T00:52:59.628Z,12.3
2018-12-14T00:53:50.222Z,12.3
2018-12-14T00:54:40.337Z,12.2
2018-12-14T00:55:29.587Z,12.2
2018-12-14T00:56:20.139Z,12.2
2018-12-14T00:57:10.188Z,12.2
2018-12-14T00:58:00.284Z,12.3
2018-12-14T00:58:51.165Z,12.2
2018-12-14T00:59:40.659Z,12.2
2018-12-14T01:00:30.709Z,12.2
2018-12-14T01:01:20.873Z,12.1
2018-12-14T01:02:11.124Z,12.1
2018-12-14T01:02:59.494Z,12.1
2018-12-14T01:03:52.027Z,12.1
2018-12-14T01:04:41.029Z,12
2018-12-14T01:05:30.516Z,12.1
2018-12-14T01:06:22.096Z,12.1
2018-12-14T01:07:11.219Z,12.1
2018-12-14T01:08:01.069Z,12.1
2018-12-14T01:08:52.206Z,12.1
2018-12-14T01:09:41.384Z,12.1
2018-12-14T01:10:32.618Z,12.1
2018-12-14T01:11:20.931Z,12.1
2018-12-14T01:12:10.464Z,12.2
2018-12-14T01:13:01.899Z,12.1
2018-12-14T01:13:51.960Z,12.1
2018-12-14T01:14:41.970Z,12.1
2018-12-14T01:15:31.076Z,12
2018-12-14T01:16:22.118Z,12
2018-12-14T01:17:11.914Z,12
2018-12-14T01:18:01.119Z,12
2018-12-14T01:18:52.264Z,12.1
2018-12-14T01:19:41.525Z,12
2018-12-14T01:20:32.380Z,12
2018-12-14T01:21:22.748Z,12
2018-12-14T01:22:12.230Z,12.1
2018-12-14T01:23:01.783Z,12.1
2018-12-14T01:23:52.400Z,12
2018-12-14T01:24:42.742Z,12
2018-12-14T01:25:32.215Z,12
2018-12-14T01:26:22.309Z,12
2018-12-14T01:27:12.057Z,12
2018-12-14T01:28:02.652Z,12
2018-12-14T01:28:52.668Z,12
2018-12-14T01:29:42.590Z,12
2018-12-14T01:30:32.849Z,12
2018-12-14T01:31:22.352Z,12
2018-12-14T01:32:12.410Z,12
2018-12-14T01:33:02.720Z,12.1
2018-12-14T01:33:53.074Z,12
2018-12-14T01:34:43.107Z,12
2018-12-14T01:35:32.912Z,12
2018-12-14T01:36:23.547Z,12
2018-12-14T01:37:13.582Z,12
2018-12-14T01:38:03.094Z,12
2018-12-14T01:38:52.859Z,11.9
2018-12-14T01:39:44.129Z,12
2018-12-14T01:40:33.287Z,12
2018-12-14T01:41:22.912Z,12
2018-12-14T01:42:13.256Z,12
2018-12-14T01:43:02.679Z,11.9
2018-12-14T01:43:53.311Z,11.9
2018-12-14T01:44:43.304Z,11.9
2018-12-14T01:45:34.208Z,11.9
2018-12-14T01:46:23.183Z,11.9
2018-12-14T01:47:14.526Z,11.9
2018-12-14T01:48:04.337Z,11.9
2018-12-14T01:48:53.923Z,12
2018-12-14T01:49:43.856Z,11.9
2018-12-14T01:50:34.518Z,11.9
2018-12-14T01:51:23.518Z,11.9
2018-12-14T01:52:13.346Z,11.9
2018-12-14T01:53:04.411Z,11.9
2018-12-14T01:53:54.431Z,11.9
2018-12-14T01:54:44.760Z,11.9
2018-12-14T01:55:35.153Z,11.9
2018-12-14T01:56:25.223Z,11.9
2018-12-14T01:57:14.703Z,11.9
2018-12-14T01:58:05.038Z,11.9
2018-12-14T01:58:54.238Z,11.9
2018-12-14T01:59:44.260Z,11.9
2018-12-14T02:00:35.470Z,11.9
2018-12-14T02:01:25.038Z,11.9
2018-12-14T02:02:14.483Z,12
2018-12-14T02:03:04.550Z,11.9
2018-12-14T02:03:54.841Z,11.9
2018-12-14T02:04:45.273Z,12
2018-12-14T02:05:35.347Z,11.9
2018-12-14T02:06:24.842Z,11.9
2018-12-14T02:07:14.837Z,11.9
2018-12-14T02:08:05.466Z,11.9
2018-12-14T02:08:54.406Z,11.9
2018-12-14T02:09:46.295Z,11.9
2018-12-14T02:10:35.074Z,11.9
2018-12-14T02:11:25.967Z,11.9
2018-12-14T02:12:19.510Z,11.9
2018-12-14T02:13:05.788Z,11.9
2018-12-14T02:13:55.824Z,11.9
2018-12-14T02:14:45.929Z,11.9
2018-12-14T02:15:34.318Z,11.9
2018-12-14T02:16:25.719Z,11.9
2018-12-14T02:17:15.802Z,11.9
2018-12-14T02:18:06.417Z,11.9
2018-12-14T02:18:56.169Z,11.9
2018-12-14T02:19:45.479Z,11.9
2018-12-14T02:20:35.744Z,11.9
2018-12-14T02:21:25.833Z,11.9
2018-12-14T02:22:16.728Z,11.9
2018-12-14T02:23:05.726Z,11.9
2018-12-14T02:23:56.286Z,11.9
2018-12-14T02:24:46.920Z,11.9
2018-12-14T02:25:36.651Z,11.9
2018-12-14T02:26:26.697Z,11.9
2018-12-14T02:27:16.858Z,11.9
2018-12-14T02:28:06.565Z,11.9
2018-12-14T02:28:56.358Z,11.9
2018-12-14T02:29:46.673Z,11.9
2018-12-14T02:30:37.594Z,11.9
2018-12-14T02:31:26.004Z,11.9
2018-12-14T02:32:17.582Z,11.9
2018-12-14T02:33:06.417Z,11.9
2018-12-14T02:33:57.276Z,11.9
2018-12-14T02:34:47.135Z,11.9
2018-12-14T02:35:37.455Z,11.9
2018-12-14T02:36:27.321Z,11.9
2018-12-14T02:37:16.980Z,11.9
2018-12-14T02:38:07.301Z,11.9
2018-12-14T02:38:57.347Z,11.8
2018-12-14T02:39:47.820Z,11.9
2018-12-14T02:40:37.206Z,11.8
2018-12-14T02:41:28.155Z,11.9
2018-12-14T02:42:26.318Z,11.8
2018-12-14T02:43:08.643Z,11.8
2018-12-14T02:43:58.245Z,11.9
2018-12-14T02:44:48.617Z,11.9
2018-12-14T02:45:37.555Z,11.9
2018-12-14T02:46:27.889Z,11.9
2018-12-14T02:47:18.302Z,11.9
2018-12-14T02:48:08.785Z,11.8
2018-12-14T02:48:58.718Z,11.8
2018-12-14T02:49:48.502Z,11.8
2018-12-14T02:50:38.557Z,11.8
2018-12-14T02:51:28.502Z,11.8
2018-12-14T02:52:18.576Z,11.8
2018-12-14T02:53:08.409Z,11.9
2018-12-14T02:53:58.702Z,11.9
2018-12-14T02:54:48.733Z,11.9
2018-12-14T02:55:38.244Z,11.9
2018-12-14T02:56:28.633Z,11.8
2018-12-14T02:57:18.913Z,11.8
2018-12-14T02:58:08.491Z,11.8
2018-12-14T02:58:59.598Z,11.8
2018-12-14T02:59:49.130Z,11.9
2018-12-14T03:00:39.162Z,11.8
2018-12-14T03:01:29.225Z,11.8
2018-12-14T03:02:18.569Z,11.8
2018-12-14T03:03:08.299Z,11.8
2018-12-14T03:03:59.484Z,11.8
2018-12-14T03:04:49.564Z,11.8
2018-12-14T03:05:37.969Z,11.8
2018-12-14T03:06:29.675Z,11.8
2018-12-14T03:07:20.152Z,11.8
2018-12-14T03:08:09.202Z,11.8
2018-12-14T03:08:59.048Z,11.8
2018-12-14T03:09:49.869Z,11.8
2018-12-14T03:10:39.556Z,11.8
2018-12-14T03:11:29.916Z,11.8
2018-12-14T03:12:27.471Z,11.8
2018-12-14T03:13:10.316Z,11.8
2018-12-14T03:14:00.619Z,11.8
2018-12-14T03:14:51.226Z,11.8
2018-12-14T03:15:40.287Z,11.8
2018-12-14T03:16:30.216Z,11.8
2018-12-14T03:17:20.284Z,11.8
2018-12-14T03:18:09.282Z,11.8
2018-12-14T03:18:59.946Z,11.8
2018-12-14T03:19:50.224Z,11.8
2018-12-14T03:20:40.026Z,11.8
2018-12-14T03:21:30.971Z,11.8
2018-12-14T03:22:20.930Z,11.8
2018-12-14T03:23:10.149Z,11.8
2018-12-14T03:24:00.551Z,11.8
2018-12-14T03:24:50.283Z,11.8
2018-12-14T03:25:40.577Z,11.9
2018-12-14T03:26:30.684Z,11.8
2018-12-14T03:27:21.381Z,11.8
2018-12-14T03:28:11.410Z,11.8
2018-12-14T03:29:00.558Z,11.9
2018-12-14T03:29:51.733Z,11.8
2018-12-14T03:30:41.717Z,11.8
2018-12-14T03:31:31.905Z,11.8
2018-12-14T03:32:21.905Z,11.8
2018-12-14T03:33:11.553Z,11.8
2018-12-14T03:34:02.021Z,11.8
2018-12-14T03:34:51.617Z,11.8
2018-12-14T03:35:41.299Z,11.8
2018-12-14T03:36:32.261Z,11.8
2018-12-14T03:37:20.653Z,11.8
2018-12-14T03:38:11.877Z,11.8
2018-12-14T03:39:01.850Z,11.8
2018-12-14T03:39:50.540Z,11.8
2018-12-14T03:40:41.688Z,11.8
2018-12-14T03:41:31.430Z,11.8
2018-12-14T03:42:22.110Z,11.9
2018-12-14T03:43:10.446Z,11.9
2018-12-14T03:44:01.704Z,11.8
2018-12-14T03:44:51.185Z,11.8
2018-12-14T03:45:42.093Z,11.8
2018-12-14T03:46:31.693Z,11.8
2018-12-14T03:47:22.293Z,11.8
2018-12-14T03:48:11.836Z,11.8
2018-12-14T03:49:02.324Z,11.8
2018-12-14T03:49:52.052Z,11.8
2018-12-14T03:50:42.160Z,11.8
2018-12-14T03:51:32.005Z,11.8
2018-12-14T03:52:22.411Z,11.8
2018-12-14T03:53:12.625Z,11.8
2018-12-14T03:54:02.387Z,11.8
2018-12-14T03:54:52.427Z,11.8
2018-12-14T03:55:42.795Z,11.8
2018-12-14T03:56:33.175Z,11.8
2018-12-14T03:57:22.888Z,11.8
2018-12-14T03:58:12.437Z,11.8
2018-12-14T03:59:03.280Z,11.8
2018-12-14T03:59:52.842Z,11.8
2018-12-14T04:00:42.905Z,11.8
2018-12-14T04:01:33.421Z,11.8
2018-12-14T04:02:23.328Z,11.8
2018-12-14T04:03:13.040Z,11.8
2018-12-14T04:04:03.112Z,11.8
2018-12-14T04:04:53.685Z,11.8
2018-12-14T04:05:42.952Z,11.8
2018-12-14T04:06:33.249Z,11.8
2018-12-14T04:07:23.159Z,11.8
2018-12-14T04:08:13.474Z,11.8
2018-12-14T04:09:04.061Z,11.8
2018-12-14T04:09:53.714Z,11.8
2018-12-14T04:10:43.800Z,11.8
2018-12-14T04:11:33.379Z,11.8
2018-12-14T04:12:23.373Z,11.8
2018-12-14T04:13:13.431Z,11.8
2018-12-14T04:14:04.042Z,11.8
2018-12-14T04:14:53.841Z,11.8
2018-12-14T04:15:45.321Z,11.8
2018-12-14T04:16:33.322Z,11.8
2018-12-14T04:17:24.334Z,11.8
2018-12-14T04:18:13.742Z,11.8
2018-12-14T04:19:04.116Z,11.8
2018-12-14T04:19:54.701Z,11.8
2018-12-14T04:20:44.228Z,11.8
2018-12-14T04:21:33.991Z,11.8
2018-12-14T04:22:24.095Z,11.8
2018-12-14T04:23:14.211Z,11.8
2018-12-14T04:24:04.594Z,11.8
2018-12-14T04:24:56.450Z,11.8
2018-12-14T04:25:44.870Z,11.8
2018-12-14T04:26:34.373Z,11.7
2018-12-14T04:27:24.451Z,11.8
2018-12-14T04:28:14.283Z,11.8
2018-12-14T04:29:04.878Z,11.8
2018-12-14T04:29:54.870Z,11.8
2018-12-14T04:30:44.930Z,11.7
2018-12-14T04:31:35.298Z,11.7
2018-12-14T04:32:25.056Z,11.8
2018-12-14T04:33:15.167Z,11.8
2018-12-14T04:34:05.170Z,11.8
2018-12-14T04:34:55.618Z,11.7
2018-12-14T04:35:45.029Z,11.7
2018-12-14T04:36:35.400Z,11.7
2018-12-14T04:37:25.405Z,11.8
2018-12-14T04:38:16.026Z,11.8
2018-12-14T04:39:05.029Z,11.7
2018-12-14T04:39:55.560Z,11.7
2018-12-14T04:40:45.067Z,11.8
2018-12-14T04:41:34.864Z,11.8
2018-12-14T04:42:25.414Z,11.7
2018-12-14T04:43:15.552Z,11.7
2018-12-14T04:44:05.804Z,11.7
2018-12-14T04:44:55.889Z,11.7
2018-12-14T05:02:19.799Z,11.6
2018-12-14T05:03:09.904Z,11.6
2018-12-14T05:04:00.742Z,11.6
2018-12-14T05:04:50.276Z,11.6
2018-12-14T05:05:40.039Z,11.6
2018-12-14T05:06:31.509Z,11.6
2018-12-14T05:07:21.277Z,11.6
2018-12-14T05:08:11.027Z,11.6
2018-12-14T05:09:01.032Z,11.6
2018-12-14T05:09:50.627Z,11.6
2018-12-14T05:10:40.236Z,11.6
2018-12-14T05:11:31.486Z,11.6
2018-12-14T05:12:20.751Z,11.6
2018-12-14T05:13:11.082Z,11.6
2018-12-14T05:14:01.179Z,11.7
2018-12-14T05:14:50.412Z,11.6
2018-12-14T05:15:41.416Z,11.6
2018-12-14T05:16:31.286Z,11.7
2018-12-14T05:17:21.372Z,11.7
2018-12-14T05:18:10.907Z,11.6
2018-12-14T05:19:01.624Z,11.6
2018-12-14T05:19:51.537Z,11.6
2018-12-14T05:20:41.041Z,11.6
2018-12-14T05:21:30.538Z,11.7
2018-12-14T05:22:21.823Z,11.7
2018-12-14T05:23:11.823Z,11.6
2018-12-14T05:24:01.556Z,11.7
2018-12-14T05:24:51.598Z,11.6
2018-12-14T05:25:41.383Z,11.7
2018-12-14T05:26:33.535Z,11.7
2018-12-14T05:27:21.882Z,11.7
2018-12-14T05:28:12.375Z,11.6
2018-12-14T05:29:01.875Z,11.6
2018-12-14T05:29:52.230Z,11.6
2018-12-14T05:30:42.553Z,11.6
2018-12-14T05:31:31.997Z,11.6
2018-12-14T05:32:22.156Z,11.6
2018-12-14T05:33:12.675Z,11.6
2018-12-14T05:34:02.275Z,11.6
2018-12-14T05:34:52.792Z,11.6
2018-12-14T05:35:42.348Z,11.6
2018-12-14T05:36:31.585Z,11.6
2018-12-14T05:37:23.487Z,11.6
2018-12-14T05:38:13.282Z,11.7
2018-12-14T05:39:02.584Z,11.7
2018-12-14T05:39:53.392Z,11.7
2018-12-14T05:40:43.187Z,11.7
2018-12-14T05:41:34.000Z,11.7
2018-12-14T05:42:22.757Z,11.7
2018-12-14T05:43:12.874Z,11.6
2018-12-14T05:44:02.600Z,11.7
2018-12-14T05:44:53.234Z,11.7
2018-12-14T05:45:43.054Z,11.6
2018-12-14T05:46:34.613Z,11.6
2018-12-14T05:47:23.919Z,11.6
2018-12-14T05:48:13.214Z,11.6
2018-12-14T05:49:03.984Z,11.6
2018-12-14T05:49:52.679Z,11.6
2018-12-14T05:50:43.159Z,11.6
2018-12-14T05:51:34.196Z,11.6
2018-12-14T05:52:23.243Z,11.6
2018-12-14T05:53:13.514Z,11.6
2018-12-14T05:54:03.066Z,11.6
2018-12-14T05:54:53.691Z,11.6
2018-12-14T05:55:43.671Z,11.7
2018-12-14T05:56:34.089Z,11.6
2018-12-14T05:57:24.145Z,11.6
2018-12-14T05:58:14.983Z,11.6
2018-12-14T05:59:04.046Z,11.6
2018-12-14T05:59:54.028Z,11.6
2018-12-14T06:00:44.366Z,11.6
2018-12-14T06:01:34.408Z,11.6
2018-12-14T06:02:23.398Z,11.6
2018-12-14T06:03:14.504Z,11.6
2018-12-14T06:04:04.798Z,11.6
2018-12-14T06:04:55.685Z,11.6
2018-12-14T06:05:44.718Z,11.6
2018-12-14T06:06:33.963Z,11.7
2018-12-14T06:07:25.312Z,11.7
2018-12-14T06:08:14.558Z,11.6
2018-12-14T06:09:05.463Z,11.7
2018-12-14T06:09:55.326Z,11.6
2018-12-14T06:10:43.975Z,11.6
2018-12-14T06:11:35.066Z,11.6
2018-12-14T06:12:23.857Z,11.6
2018-12-14T06:13:16.900Z,11.6
2018-12-14T06:14:05.262Z,11.6
2018-12-14T06:14:56.050Z,11.6
2018-12-14T06:15:45.417Z,11.6
2018-12-14T06:16:35.112Z,11.6
2018-12-14T06:17:25.030Z,11.6
2018-12-14T06:18:15.039Z,11.6
2018-12-14T06:19:05.047Z,11.6
2018-12-14T06:19:55.429Z,11.6
2018-12-14T06:20:45.495Z,11.6
2018-12-14T06:21:35.567Z,11.6
2018-12-14T06:22:25.402Z,11.6
2018-12-14T06:23:15.185Z,11.6
2018-12-14T06:24:05.217Z,11.6
2018-12-14T06:24:56.345Z,11.6
2018-12-14T06:25:45.974Z,11.6
2018-12-14T06:26:35.583Z,11.6
2018-12-14T06:27:26.192Z,11.6
2018-12-14T06:28:16.204Z,11.6
2018-12-14T06:29:06.054Z,11.6
2018-12-14T06:29:56.092Z,11.6
2018-12-14T06:30:46.473Z,11.6
2018-12-14T06:31:35.594Z,11.6
2018-12-14T06:32:27.066Z,11.6
2018-12-14T06:33:15.018Z,11.6
2018-12-14T06:34:06.318Z,11.6
2018-12-14T06:34:56.884Z,11.6
2018-12-14T06:35:48.823Z,11.6
2018-12-14T06:36:36.226Z,11.6
2018-12-14T06:37:27.106Z,11.6
2018-12-14T06:38:16.896Z,11.6
2018-12-14T06:39:06.991Z,11.6
2018-12-14T06:39:57.780Z,11.6
2018-12-14T06:40:47.330Z,11.6
2018-12-14T06:41:38.185Z,11.6
2018-12-14T06:42:26.888Z,11.6
2018-12-14T06:43:23.493Z,11.6
2018-12-14T06:44:06.534Z,11.6
2018-12-14T06:44:57.434Z,11.6
2018-12-14T06:45:46.920Z,11.6
2018-12-14T06:46:36.997Z,11.6
2018-12-14T06:47:27.795Z,11.6
2018-12-14T06:48:17.855Z,11.6
2018-12-14T06:49:07.665Z,11.6
2018-12-14T06:49:57.965Z,11.6
2018-12-14T06:50:48.069Z,11.6
2018-12-14T06:51:38.998Z,11.6
2018-12-14T06:52:27.588Z,11.6
2018-12-14T06:53:18.480Z,11.6
2018-12-14T06:54:08.324Z,11.6
2018-12-14T06:54:57.805Z,11.6
2018-12-14T06:55:48.099Z,11.6
2018-12-14T06:56:38.804Z,11.6
2018-12-14T06:57:29.937Z,11.6
2018-12-14T06:58:18.559Z,11.6
2018-12-14T06:59:08.454Z,11.6
2018-12-14T06:59:58.236Z,11.6
2018-12-14T07:00:48.794Z,11.6
2018-12-14T07:01:37.981Z,11.6
2018-12-14T07:02:29.374Z,11.6
2018-12-14T07:03:20.311Z,11.6
2018-12-14T07:04:08.656Z,11.6
2018-12-14T07:04:57.634Z,11.6
2018-12-14T07:05:49.308Z,11.6
2018-12-14T07:06:39.183Z,11.6
2018-12-14T07:07:29.188Z,11.6
2018-12-14T07:08:18.943Z,11.6
2018-12-14T07:09:09.299Z,11.6
2018-12-14T07:09:59.076Z,11.6
2018-12-14T07:10:49.363Z,11.5
2018-12-14T07:11:38.426Z,11.5
2018-12-14T07:12:29.589Z,11.6
2018-12-14T07:13:26.306Z,11.6
2018-12-14T07:14:11.268Z,11.6
2018-12-14T07:14:59.771Z,11.6
2018-12-14T07:15:49.306Z,11.6
2018-12-14T07:16:40.345Z,11.6
2018-12-14T07:17:30.171Z,11.6
2018-12-14T07:18:19.905Z,11.6
2018-12-14T07:19:09.168Z,11.6
2018-12-14T07:19:59.495Z,11.6
2018-12-14T07:20:50.075Z,11.5
2018-12-14T07:21:40.164Z,11.5
2018-12-14T07:22:30.209Z,11.6
2018-12-14T07:23:20.231Z,11.5
2018-12-14T07:24:10.640Z,11.6
2018-12-14T07:25:00.350Z,11.6
2018-12-14T07:25:50.443Z,11.5
2018-12-14T07:26:39.947Z,11.6
2018-12-14T07:27:29.705Z,11.5
2018-12-14T07:28:20.355Z,11.6
2018-12-14T07:29:11.134Z,11.5
2018-12-14T07:30:00.972Z,11.6
2018-12-14T07:30:50.754Z,11.6
2018-12-14T07:31:40.822Z,11.6
2018-12-14T07:32:30.622Z,11.6
2018-12-14T07:33:20.360Z,11.6
2018-12-14T07:34:10.678Z,11.6
2018-12-14T07:35:00.229Z,11.6
2018-12-14T07:35:51.412Z,11.6
2018-12-14T07:36:41.745Z,11.6
2018-12-14T07:37:31.477Z,11.6
2018-12-14T07:38:21.272Z,11.6
2018-12-14T07:39:11.384Z,11.6
2018-12-14T07:40:01.666Z,11.6
2018-12-14T07:40:51.992Z,11.6
2018-12-14T07:41:41.502Z,11.6
2018-12-14T07:42:31.836Z,11.6
2018-12-14T07:43:21.101Z,11.5
2018-12-14T07:44:10.843Z,11.5
2018-12-14T07:45:02.724Z,11.5
2018-12-14T07:45:51.237Z,11.5
2018-12-14T07:46:41.852Z,11.6
2018-12-14T07:47:32.149Z,11.6
2018-12-14T07:48:21.946Z,11.5
2018-12-14T07:49:11.743Z,11.5
2018-12-14T07:50:02.057Z,11.5
2018-12-14T07:50:52.413Z,11.5
2018-12-14T07:51:42.771Z,11.5
2018-12-14T07:52:32.263Z,11.5
2018-12-14T07:53:22.301Z,11.5
2018-12-14T07:54:12.633Z,11.5
2018-12-14T07:55:02.403Z,11.6
2018-12-14T07:55:53.013Z,11.6
2018-12-14T07:56:42.333Z,11.5
2018-12-14T07:57:32.054Z,11.5
2018-12-14T07:58:21.902Z,11.5
2018-12-14T07:59:12.971Z,11.5
2018-12-14T08:00:03.336Z,11.5
2018-12-14T08:00:52.546Z,11.5
2018-12-14T08:01:43.153Z,11.5
2018-12-14T08:02:34.378Z,11.5
2018-12-14T08:03:22.710Z,11.6
2018-12-14T08:04:13.365Z,11.5
2018-12-14T08:05:03.397Z,11.6
2018-12-14T08:05:52.888Z,11.6
2018-12-14T08:06:42.423Z,11.5
2018-12-14T08:07:33.796Z,11.5
2018-12-14T08:08:23.342Z,11.5
2018-12-14T08:09:13.364Z,11.6
2018-12-14T08:10:03.528Z,11.6
2018-12-14T08:10:53.769Z,11.6
2018-12-14T08:11:42.155Z,11.6
2018-12-14T08:12:33.892Z,11.6
2018-12-14T08:13:25.525Z,11.6
2018-12-14T08:14:13.667Z,11.6
2018-12-14T08:15:03.302Z,11.6
2018-12-14T08:15:53.353Z,11.6
2018-12-14T08:16:43.685Z,11.6
2018-12-14T08:17:33.449Z,11.6
2018-12-14T08:18:23.521Z,11.6
2018-12-14T08:19:14.326Z,11.6
2018-12-14T08:20:04.687Z,11.6
2018-12-14T08:20:53.969Z,11.6
2018-12-14T08:21:42.587Z,11.6
2018-12-14T08:22:34.012Z,11.6
2018-12-14T08:23:24.025Z,11.6
2018-12-14T08:24:14.385Z,11.6
2018-12-14T08:25:04.679Z,11.5
2018-12-14T08:25:55.054Z,11.5
2018-12-14T08:26:43.449Z,11.6
2018-12-14T08:27:33.793Z,11.5
2018-12-14T08:28:24.977Z,11.5
2018-12-14T08:29:14.762Z,11.6
2018-12-14T08:30:04.304Z,11.6
2018-12-14T08:30:54.303Z,11.6
2018-12-14T08:31:44.616Z,11.6
2018-12-14T08:32:35.257Z,11.6
2018-12-14T08:33:24.771Z,11.6
2018-12-14T08:34:14.800Z,11.6
2018-12-14T08:35:05.451Z,11.6
2018-12-14T08:35:55.748Z,11.6
2018-12-14T08:36:45.251Z,11.6
2018-12-14T08:37:35.061Z,11.5
2018-12-14T08:38:24.811Z,11.5
2018-12-14T08:39:15.717Z,11.6
2018-12-14T08:40:05.496Z,11.5
2018-12-14T08:40:55.507Z,11.5
2018-12-14T08:41:46.606Z,11.5
2018-12-14T08:42:35.388Z,11.6
2018-12-14T08:43:24.942Z,11.6
2018-12-14T08:44:16.158Z,11.6
2018-12-14T08:45:05.623Z,11.6
2018-12-14T08:45:56.170Z,11.6
2018-12-14T08:46:46.217Z,11.6
2018-12-14T08:47:36.311Z,11.5
2018-12-14T08:48:25.275Z,11.6
2018-12-14T08:49:15.840Z,11.5
2018-12-14T08:50:05.663Z,11.6
2018-12-14T08:50:56.460Z,11.5
2018-12-14T08:51:46.288Z,11.5
2018-12-14T08:52:36.053Z,11.6
2018-12-14T08:53:26.136Z,11.6
2018-12-14T08:54:16.788Z,11.6
2018-12-14T08:55:06.792Z,11.6
2018-12-14T08:55:56.571Z,11.6
2018-12-14T08:56:46.905Z,11.6
2018-12-14T08:57:37.293Z,11.6
2018-12-14T08:58:26.740Z,11.5
2018-12-14T08:59:15.963Z,11.6
2018-12-14T09:00:06.898Z,11.6
2018-12-14T09:16:42.499Z,11.5
2018-12-14T09:17:46.463Z,11.5
2018-12-14T09:18:23.089Z,11.4
2018-12-14T14:15:36.415Z,11.2
2018-12-14T14:16:27.230Z,11.2
2018-12-14T14:17:16.002Z,11.2
2018-12-14T14:18:05.745Z,11.2
2018-12-14T14:18:56.349Z,11.2
2018-12-14T14:19:46.712Z,11.2
2018-12-14T14:20:36.470Z,11.2
2018-12-14T14:21:27.084Z,11.2
2018-12-14T14:22:16.045Z,11.1
2018-12-14T14:23:08.184Z,11.2
2018-12-14T14:23:56.987Z,11.2
2018-12-14T14:24:47.086Z,11.2
2018-12-14T14:25:36.532Z,11.2
2018-12-14T14:26:26.302Z,11.2
2018-12-14T14:27:16.377Z,11.3
2018-12-14T14:28:07.267Z,11.2
2018-12-14T14:28:57.314Z,11.2
2018-12-14T14:29:47.386Z,11.3
2018-12-14T14:30:38.176Z,11.3
2018-12-14T14:31:27.678Z,11.3
2018-12-14T14:32:17.269Z,11.3
2018-12-14T14:33:06.434Z,11.3
2018-12-14T14:33:57.596Z,11.3
2018-12-14T14:34:47.903Z,11.3
2018-12-14T14:35:36.588Z,11.2
2018-12-14T14:36:28.264Z,11.3
2018-12-14T14:37:18.156Z,11.2
2018-12-14T14:38:08.160Z,11.2
2018-12-14T14:38:59.651Z,11.2
2018-12-14T14:39:47.983Z,11.3
2018-12-14T14:40:38.268Z,11.3
2018-12-14T14:41:28.764Z,11.3
2018-12-14T14:42:17.938Z,11.3
2018-12-14T14:43:08.186Z,11.3
2018-12-14T14:43:57.403Z,11.3
2018-12-14T14:44:48.051Z,11.3
2018-12-14T14:45:38.348Z,11.3
2018-12-14T14:46:29.230Z,11.3
2018-12-14T14:47:17.920Z,11.3
2018-12-14T14:48:09.093Z,11.3
2018-12-14T14:48:58.323Z,11.3
2018-12-14T14:49:48.940Z,11.3
2018-12-14T14:50:39.003Z,11.3
2018-12-14T14:51:29.843Z,11.3
2018-12-14T14:52:18.870Z,11.3
2018-12-14T14:53:08.910Z,11.3
2018-12-14T14:53:58.675Z,11.2
2018-12-14T14:54:48.715Z,11.2
2018-12-14T14:55:39.970Z,11.2
2018-12-14T14:56:29.343Z,11.2
2018-12-14T14:57:19.729Z,11.2
2018-12-14T14:58:10.307Z,11.2
2018-12-14T14:58:58.462Z,11.2
2018-12-14T14:59:49.894Z,11.3
2018-12-14T15:00:39.707Z,11.3
2018-12-14T15:01:29.997Z,11.3
2018-12-14T15:02:18.688Z,11.2
2018-12-14T15:03:09.879Z,11.2
2018-12-14T15:04:00.209Z,11.2
2018-12-14T15:04:50.300Z,11.3
2018-12-14T15:05:39.994Z,11.2
2018-12-14T15:06:29.743Z,11.2
2018-12-14T15:07:20.132Z,11.3
2018-12-14T15:08:09.886Z,11.2
2018-12-14T15:09:00.522Z,11.2
2018-12-14T15:09:49.764Z,11.2
2018-12-14T15:10:40.357Z,11.2
2018-12-14T15:11:30.734Z,11.3
2018-12-14T15:12:20.005Z,11.2
2018-12-14T15:13:11.321Z,11.3
2018-12-14T15:14:00.017Z,11.2
2018-12-14T15:14:52.164Z,11.2
2018-12-14T15:15:40.991Z,11.2
2018-12-14T15:16:30.756Z,11.2
2018-12-14T15:17:20.514Z,11.2
2018-12-14T15:18:10.301Z,11.2
2018-12-14T15:19:00.372Z,11.2
2018-12-14T15:19:51.038Z,11.3
2018-12-14T15:20:40.465Z,11.2
2018-12-14T15:21:30.586Z,11.2
2018-12-14T15:22:21.393Z,11.2
2018-12-14T15:23:11.719Z,11.2
2018-12-14T15:24:01.353Z,11.2
2018-12-14T15:24:51.049Z,11.2
2018-12-14T15:25:40.833Z,11.2
2018-12-14T15:26:31.158Z,11.2
2018-12-14T15:27:21.783Z,11.2
2018-12-14T15:28:11.593Z,11.2
2018-12-14T15:29:01.318Z,11.2
2018-12-14T15:29:51.713Z,11.2
2018-12-14T15:30:41.426Z,11.2
2018-12-14T15:31:31.728Z,11.2
2018-12-14T15:32:21.773Z,11.2
2018-12-14T15:33:11.678Z,11.2
2018-12-14T15:34:02.213Z,11.2
2018-12-14T15:34:51.460Z,11.2
2018-12-14T15:35:41.778Z,11.2
2018-12-14T15:36:32.393Z,11.2
2018-12-14T15:37:22.485Z,11.2
2018-12-14T15:38:11.950Z,11.2
2018-12-14T15:39:01.735Z,11.2
2018-12-14T15:39:51.839Z,11.2
2018-12-14T15:40:43.602Z,11.2
2018-12-14T15:41:32.707Z,11.2
2018-12-14T15:42:23.057Z,11.2
2018-12-14T15:43:12.867Z,11.2
2018-12-14T15:44:02.899Z,11.2
2018-12-14T15:44:52.115Z,11.2
2018-12-14T15:45:42.199Z,11.2
2018-12-14T15:46:34.539Z,11.2
2018-12-14T15:47:22.657Z,11.2
2018-12-14T15:48:12.875Z,11.2
2018-12-14T15:49:03.273Z,11.2
2018-12-14T15:49:52.466Z,11.2
2018-12-14T15:50:43.341Z,11.2
2018-12-14T15:51:32.610Z,11.2
2018-12-14T15:52:23.742Z,11.2
2018-12-14T15:53:12.986Z,11.2
2018-12-14T15:54:03.324Z,11.2
2018-12-14T15:54:53.884Z,11.2
2018-12-14T15:55:43.424Z,11.2
2018-12-14T15:56:33.013Z,11.2
2018-12-14T15:57:23.823Z,11.2
2018-12-14T15:58:12.524Z,11.2
2018-12-14T15:59:02.894Z,11.2
2018-12-14T15:59:53.149Z,11.1
2018-12-14T16:00:44.291Z,11.2
2018-12-14T16:01:33.629Z,11.1
2018-12-14T16:02:23.441Z,11.1
2018-12-14T16:03:13.423Z,11.1
2018-12-14T16:04:03.724Z,11.1
2018-12-14T16:04:53.293Z,11.1
2018-12-14T16:05:43.042Z,11.2
2018-12-14T16:06:34.503Z,11.1
2018-12-14T16:07:24.738Z,11.1
2018-12-14T16:08:13.418Z,11.1
2018-12-14T16:09:03.883Z,11.1
2018-12-14T16:09:53.358Z,11.2
2018-12-14T16:10:44.487Z,11.2
2018-12-14T16:11:34.484Z,11.2
2018-12-14T16:12:24.335Z,11.2
2018-12-14T16:13:14.408Z,11.1
2018-12-14T16:14:04.838Z,11.1
2018-12-14T16:14:54.669Z,11.1
2018-12-14T16:15:44.249Z,11.1
2018-12-14T16:16:35.375Z,11.1
2018-12-14T16:17:24.677Z,11.1
2018-12-14T16:18:15.838Z,11.1
2018-12-14T16:19:06.118Z,11.2
2018-12-14T16:19:54.531Z,11.1
2018-12-14T16:20:46.088Z,11.1
2018-12-14T16:21:35.845Z,11.1
2018-12-14T16:22:24.856Z,11.2
2018-12-14T16:23:16.137Z,11.2
2018-12-14T16:24:05.705Z,11.1
2018-12-14T16:24:54.792Z,11.1
2018-12-14T16:25:45.470Z,11.2
2018-12-14T16:26:35.520Z,11.2
2018-12-14T16:27:26.420Z,11.2
2018-12-14T16:28:15.937Z,11.2
2018-12-14T16:29:05.792Z,11.2
2018-12-14T16:29:56.037Z,11.2
2018-12-14T16:30:45.905Z,11.2
2018-12-14T16:31:35.707Z,11.1
2018-12-14T16:32:26.167Z,11.2
2018-12-14T16:33:15.247Z,11.1
2018-12-14T16:34:05.789Z,11.1
2018-12-14T16:34:54.779Z,11.1
2018-12-14T16:35:45.446Z,11.1
2018-12-14T16:36:35.517Z,11.1
2018-12-14T16:37:25.829Z,11.1
2018-12-14T16:38:14.171Z,11.1
2018-12-14T16:39:05.455Z,11.1
2018-12-14T16:39:55.751Z,11.1
2018-12-14T16:40:45.318Z,11.1
2018-12-14T16:41:36.071Z,11.2
2018-12-14T16:42:25.581Z,11.1
2018-12-14T16:43:16.139Z,11.1
2018-12-14T16:44:05.970Z,11.1
2018-12-14T16:44:56.316Z,11.2
2018-12-14T16:45:47.708Z,11.1
2018-12-14T16:46:36.728Z,11.1
2018-12-14T16:47:26.210Z,11.1
2018-12-14T16:48:16.773Z,11.1
2018-12-14T16:49:06.303Z,11.1
2018-12-14T16:49:56.136Z,11.1
2018-12-14T16:50:46.405Z,11.1
2018-12-14T16:51:36.183Z,11.1
2018-12-14T16:52:27.188Z,11.1
2018-12-14T16:53:16.832Z,11.1
2018-12-14T16:54:06.918Z,11.1
2018-12-14T16:54:57.008Z,11.1